Time;durP1;ratioP1;P1;durP2;ratioP2;P2;SDS_P1;SDS_P2;PMS_P1;PMS_P2;Temp;Humidity;BMP_temperature;BMP_pressure;BME280_temperature;BME280_humidity;BME280_pressure;Samples;Min_cycle;Max_cycle;Signal;HPM_P1;HPM_P2
2023/02/10 00:01:08;;;;;;;;;15.75;14.50;;;;;20.96;38.04;103560.13;5056633;28;46261;-72
2023/02/10 00:03:34;;;;;;;;;17.00;17.00;;;;;20.98;38.37;103571.44;5056979;28;45289;-72
2023/02/10 00:06:00;;;;;;;;;17.25;16.00;;;;;20.97;37.89;103567.13;5057370;28;45458;-72
2023/02/10 00:08:26;;;;;;;;;15.75;15.75;;;;;20.96;38.14;103568.91;5057123;28;45435;-72
2023/02/10 00:10:51;;;;;;;;;17.50;15.00;;;;;20.96;37.96;103563.63;5056882;28;47136;-72
2023/02/10 00:13:16;;;;;;;;;16.00;16.00;;;;;20.92;38.15;103558.66;5057144;28;45409;-72
2023/02/10 00:15:42;;;;;;;;;18.00;15.50;;;;;20.92;38.19;103558.66;5056882;28;45370;-72
2023/02/10 00:18:07;;;;;;;;;14.25;13.50;;;;;20.95;37.69;103564.56;5057044;28;45385;-72
2023/02/10 00:20:32;;;;;;;;;17.00;16.25;;;;;20.82;38.15;103545.19;5056058;28;46010;-72
2023/02/10 00:22:58;;;;;;;;;20.50;15.50;;;;;20.94;38.02;103562.03;5056890;28;45388;-72
2023/02/10 00:25:24;;;;;;;;;18.75;16.00;;;;;20.91;38.34;103556.94;5056915;28;45480;-72
2023/02/10 00:27:49;;;;;;;;;17.75;15.75;;;;;20.95;38.12;103563.72;5038867;28;45387;-72
2023/02/10 00:30:14;;;;;;;;;17.75;15.25;;;;;20.87;37.68;103542.25;5056470;28;45980;-72
2023/02/10 00:32:40;;;;;;;;;19.00;16.25;;;;;20.94;37.86;103554.09;5056539;28;45300;-72
2023/02/10 00:35:08;;;;;;;;;18.50;16.75;;;;;20.94;38.15;103554.09;5056172;28;45382;-72
2023/02/10 00:37:33;;;;;;;;;16.00;13.25;;;;;20.94;37.74;103551.44;5056666;28;45418;-72
2023/02/10 00:39:59;;;;;;;;;20.50;15.25;;;;;20.92;38.12;103542.78;5056336;28;47212;-72
2023/02/10 00:42:24;;;;;;;;;15.25;15.25;;;;;20.91;38.09;103547.22;5056545;28;45340;-72
2023/02/10 00:44:50;;;;;;;;;17.00;14.50;;;;;20.83;38.01;103533.66;5056137;28;45304;-72
2023/02/10 00:47:16;;;;;;;;;15.25;15.25;;;;;20.88;37.86;103546.56;5056442;28;45374;-72
2023/02/10 00:49:41;;;;;;;;;18.50;17.50;;;;;20.87;38.04;103537.78;5056375;28;46212;-72
2023/02/10 00:52:06;;;;;;;;;14.00;14.00;;;;;20.91;37.87;103541.94;5056258;28;45320;-72
2023/02/10 00:54:32;;;;;;;;;17.75;15.75;;;;;20.92;37.72;103548.91;5056460;28;45388;-72
2023/02/10 00:56:57;;;;;;;;;14.00;12.75;;;;;20.91;38.02;103544.56;5056249;28;45515;-72
2023/02/10 00:59:22;;;;;;;;;18.75;17.75;;;;;20.90;37.72;103548.16;5055169;28;45841;-72
2023/02/10 01:01:48;;;;;;;;;17.50;17.50;;;;;20.90;38.07;103556.09;5056299;28;45326;-72
2023/02/10 01:04:14;;;;;;;;;14.00;13.00;;;;;20.90;37.51;103560.53;5056240;28;45909;-72
2023/02/10 01:06:39;;;;;;;;;16.75;16.75;;;;;20.83;37.96;103544.25;5056441;28;45361;-72
2023/02/10 01:09:05;;;;;;;;;12.00;11.00;;;;;20.78;37.78;103535.78;5037902;28;47097;-72
2023/02/10 01:11:30;;;;;;;;;15.75;14.75;;;;;20.91;38.09;103563.09;5056046;28;45264;-72
2023/02/10 01:13:55;;;;;;;;;16.00;16.00;;;;;20.84;38.00;103557.38;5056033;28;45354;-72
2023/02/10 01:16:21;;;;;;;;;16.00;16.00;;;;;20.91;37.77;103562.25;5056193;28;45317;-72
2023/02/10 01:18:46;;;;;;;;;17.50;16.50;;;;;20.91;38.20;103559.59;5055738;28;47697;-72
2023/02/10 01:21:15;;;;;;;;;13.25;12.25;;;;;20.85;38.13;103547.63;5056059;28;45348;-72
2023/02/10 01:23:41;;;;;;;;;17.00;16.25;;;;;20.89;38.53;103558.88;5056017;28;45407;-72
2023/02/10 01:26:08;;;;;;;;;17.25;15.00;;;;;20.88;38.16;103555.38;5055840;28;45340;-72
2023/02/10 01:28:33;;;;;;;;;18.25;16.00;;;;;20.85;38.06;103548.47;5055472;28;46272;-72
2023/02/10 01:31:04;;;;;;;;;17.00;14.50;;;;;20.87;37.80;103552.84;5055445;28;45406;-72
2023/02/10 01:33:29;;;;;;;;;19.00;16.00;;;;;20.85;38.39;103553.78;5055163;28;45348;-72
2023/02/10 01:35:55;;;;;;;;;17.75;15.75;;;;;20.86;38.35;103559.91;5055752;28;45421;-72
2023/02/10 01:38:20;;;;;;;;;18.75;16.75;;;;;20.85;38.28;103556.41;5055766;28;46225;-72
2023/02/10 01:40:48;;;;;;;;;16.25;16.25;;;;;20.79;38.08;103553.38;5055742;28;45293;-72
2023/02/10 01:43:15;;;;;;;;;16.25;15.25;;;;;20.84;37.97;103565.31;5055555;28;45410;-72
2023/02/10 01:45:40;;;;;;;;;16.50;15.50;;;;;20.85;38.23;103566.16;5055547;28;45458;-72
2023/02/10 01:48:08;;;;;;;;;18.75;16.25;;;;;20.84;37.81;103556.53;5055143;28;46019;-72
2023/02/10 01:50:40;;;;;;;;;19.50;17.00;;;;;20.84;38.04;103556.53;5037669;28;45416;-72
2023/02/10 01:53:06;;;;;;;;;16.50;15.75;;;;;20.83;37.83;103560.13;5037428;28;45365;-72
2023/02/10 01:55:34;;;;;;;;;17.50;17.00;;;;;20.82;38.00;103551.34;5055705;28;45421;-72
2023/02/10 01:58:02;;;;;;;;;16.75;16.75;;;;;20.81;38.36;103549.66;5054756;28;46167;-72
2023/02/10 02:00:28;;;;;;;;;15.75;15.75;;;;;20.82;38.09;103551.34;5055375;28;45335;-72
2023/02/10 02:02:53;;;;;;;;;18.75;18.00;;;;;20.76;38.03;103548.28;5055518;28;45365;-72
2023/02/10 02:05:30;;;;;;;;;14.75;14.50;;;;;20.83;37.90;103562.78;5055545;28;45651;-72
2023/02/10 02:08:01;;;;;;;;;13.50;9.25;;;;;20.82;37.73;103553.13;5055470;28;46191;-72
2023/02/10 02:10:48;;;;;;;;;19.25;16.25;;;;;20.80;37.79;103558.53;5055242;28;45300;-72
2023/02/10 02:13:41;;;;;;;;;18.25;17.50;;;;;20.83;38.06;103557.47;5055123;28;45250;-72
2023/02/10 02:16:27;;;;;;;;;18.75;15.50;;;;;20.83;38.25;103562.78;5055250;28;45342;-73
2023/02/10 02:19:04;;;;;;;;;19.75;17.75;;;;;20.83;37.87;103553.03;5055047;28;45433;-72
2023/02/10 02:21:53;;;;;;;;;18.00;14.50;;;;;20.83;38.09;103553.03;5055118;28;45307;-72
2023/02/10 02:24:42;;;;;;;;;17.75;17.00;;;;;20.84;37.67;103548.59;5055246;28;45326;-72
2023/02/10 02:27:29;;;;;;;;;22.25;18.50;;;;;20.84;37.93;103553.91;5054755;28;45455;-72
2023/02/10 02:30:20;;;;;;;;;17.75;16.50;;;;;20.83;37.74;103558.34;5054955;28;45783;-72
2023/02/10 02:33:23;;;;;;;;;18.00;16.50;;;;;20.82;38.04;103553.97;5055088;28;45442;-72
2023/02/10 02:35:56;;;;;;;;;18.00;16.75;;;;;20.83;37.92;103550.41;5054392;28;45210;-72
2023/02/10 02:38:21;;;;;;;;;20.25;15.25;;;;;20.83;37.82;103549.53;5054982;28;45196;-72
2023/02/10 02:40:47;;;;;;;;;18.50;14.50;;;;;20.82;37.94;103542.53;5054447;28;46964;-72
2023/02/10 02:43:12;;;;;;;;;16.50;16.50;;;;;20.82;37.91;103542.53;5055755;28;45230;-73
2023/02/10 02:45:54;;;;;;;;;16.50;15.00;;;;;20.82;38.14;103540.75;5058433;28;45249;-72
2023/02/10 02:48:56;;;;;;;;;15.25;15.25;;;;;20.82;37.92;103539.91;5058137;28;45171;-72
2023/02/10 02:51:43;;;;;;;;;17.25;16.75;;;;;20.80;38.00;103529.44;5058222;28;47141;-72
2023/02/10 02:54:18;;;;;;;;;21.25;17.75;;;;;20.80;37.79;103539.16;5058045;28;45334;-72
2023/02/10 02:56:54;;;;;;;;;23.00;19.75;;;;;20.81;37.84;103535.56;5057907;28;45384;-72
2023/02/10 02:59:29;;;;;;;;;17.75;16.00;;;;;20.81;38.23;103540.88;5058073;28;45340;-72
2023/02/10 03:02:01;;;;;;;;;20.25;16.25;;;;;20.80;38.02;103544.44;5058091;28;45382;-72
2023/02/10 03:04:30;;;;;;;;;13.75;13.75;;;;;20.71;37.95;103524.78;5057960;28;45253;-72
2023/02/10 03:06:56;;;;;;;;;17.75;16.00;;;;;20.79;37.82;103535.66;5058149;28;45267;-72
2023/02/10 03:09:22;;;;;;;;;16.50;16.50;;;;;20.78;38.00;103536.63;5039722;28;45388;-72
2023/02/10 03:11:47;;;;;;;;;20.50;16.50;;;;;20.76;37.99;103533.25;5057854;28;46068;-72
2023/02/10 03:14:12;;;;;;;;;15.00;15.00;;;;;20.75;38.18;103528.91;5058085;28;45232;-72
2023/02/10 03:16:37;;;;;;;;;21.50;16.25;;;;;20.79;37.86;103537.50;5058044;28;45272;-72
2023/02/10 03:19:03;;;;;;;;;20.25;18.75;;;;;20.78;37.94;103530.50;5057921;28;45281;-72
2023/02/10 03:21:28;;;;;;;;;20.50;18.75;;;;;20.78;37.99;103531.34;5057816;28;45325;-72
2023/02/10 03:23:53;;;;;;;;;13.75;13.75;;;;;20.77;38.33;103540.22;5057485;28;45371;-72
2023/02/10 03:26:19;;;;;;;;;15.00;15.00;;;;;20.73;38.21;103534.31;5057936;28;45399;-72
2023/02/10 03:28:44;;;;;;;;;16.25;16.25;;;;;20.77;37.86;103545.50;5057862;28;45404;-72
2023/02/10 03:31:10;;;;;;;;;18.25;18.25;;;;;20.72;38.25;103539.69;5057501;28;46182;-72
2023/02/10 03:33:36;;;;;;;;;20.25;20.25;;;;;20.76;37.88;103541.19;5057645;28;45490;-72
2023/02/10 03:36:02;;;;;;;;;13.00;12.75;;;;;20.77;38.09;103540.22;5057897;28;45443;-72
2023/02/10 03:38:29;;;;;;;;;19.25;15.25;;;;;20.65;37.87;103520.75;5057161;28;45355;-72
2023/02/10 03:40:55;;;;;;;;;18.00;16.25;;;;;20.76;37.65;103532.41;5057458;28;45336;-72
2023/02/10 03:43:21;;;;;;;;;25.25;20.75;;;;;20.78;37.94;103541.06;5057481;28;45570;-72
2023/02/10 03:45:47;;;;;;;;;21.00;20.75;;;;;20.77;38.02;103540.22;5057431;28;45324;-72
2023/02/10 03:48:13;;;;;;;;;20.00;17.75;;;;;20.79;38.08;103540.97;5057251;28;45396;-72
2023/02/10 03:50:39;;;;;;;;;23.00;19.50;;;;;20.73;38.06;103538.75;5057227;28;47064;-72
2023/02/10 03:53:05;;;;;;;;;22.00;19.25;;;;;20.80;37.77;103547.09;5056741;28;45381;-72
2023/02/10 03:55:31;;;;;;;;;19.00;19.00;;;;;20.80;38.04;103545.31;5056236;28;45440;-72
2023/02/10 03:57:56;;;;;;;;;26.25;20.50;;;;;20.73;37.84;103536.97;5057025;28;45449;-72
2023/02/10 04:00:21;;;;;;;;;19.00;17.25;;;;;20.76;37.81;103542.97;5057055;28;46386;-72
2023/02/10 04:02:47;;;;;;;;;21.50;20.50;;;;;20.80;38.13;103547.09;5057193;28;45250;-72
2023/02/10 04:05:12;;;;;;;;;22.25;18.00;;;;;20.79;37.95;103551.53;5057388;28;45298;-73
2023/02/10 04:07:38;;;;;;;;;20.25;19.25;;;;;20.78;38.36;103549.00;5056818;28;45281;-72
2023/02/10 04:10:04;;;;;;;;;15.75;15.75;;;;;20.80;37.96;103550.59;5056961;28;46159;-72
2023/02/10 04:12:31;;;;;;;;;20.75;18.25;;;;;20.80;37.71;103552.41;5057074;28;45266;-72
2023/02/10 04:14:57;;;;;;;;;19.00;17.75;;;;;20.76;38.13;103549.13;5057110;28;45431;-72
2023/02/10 04:17:22;;;;;;;;;19.50;19.50;;;;;20.72;38.25;103542.34;5056890;28;45161;-72
2023/02/10 04:19:48;;;;;;;;;16.25;15.00;;;;;20.78;38.15;103555.16;5056915;28;46123;-72
2023/02/10 04:22:14;;;;;;;;;20.25;18.00;;;;;20.76;38.19;103551.78;5056311;28;45420;-72
2023/02/10 04:24:39;;;;;;;;;19.00;16.00;;;;;20.79;38.15;103553.38;5057022;28;45922;-72
2023/02/10 04:27:04;;;;;;;;;18.75;18.50;;;;;20.71;37.85;103554.72;5056740;28;45480;-72
2023/02/10 04:29:30;;;;;;;;;19.50;16.50;;;;;20.76;37.67;103558.84;5056625;28;46043;-72
2023/02/10 04:31:55;;;;;;;;;14.50;13.75;;;;;20.79;37.69;103567.41;5056643;28;45313;-72
2023/02/10 04:34:20;;;;;;;;;20.25;15.50;;;;;20.78;37.91;103573.69;5056778;28;45510;-72
2023/02/10 04:36:46;;;;;;;;;13.00;12.25;;;;;20.77;38.27;103573.75;5056425;28;45427;-72
2023/02/10 04:39:11;;;;;;;;;17.50;15.00;;;;;20.70;38.28;103562.75;5056519;28;47588;-72
2023/02/10 04:41:37;;;;;;;;;21.25;18.75;;;;;20.79;38.07;103582.47;5056519;28;45446;-72
2023/02/10 04:44:02;;;;;;;;;22.00;17.25;;;;;20.78;37.86;103581.63;5056773;28;45433;-72
2023/02/10 04:46:28;;;;;;;;;20.75;18.25;;;;;20.77;38.13;103587.84;5056517;28;45547;-72
2023/02/10 04:48:54;;;;;;;;;20.25;18.50;;;;;20.77;38.05;103584.34;5056148;28;46299;-72
2023/02/10 04:51:19;;;;;;;;;17.75;14.00;;;;;20.76;38.10;103588.81;5056097;28;45326;-72
2023/02/10 04:53:47;;;;;;;;;17.00;14.75;;;;;20.77;38.34;103587.84;5056409;28;45412;-72
2023/02/10 04:56:12;;;;;;;;;23.50;20.25;;;;;20.68;37.82;103578.75;5056392;28;45296;-72
2023/02/10 04:58:38;;;;;;;;;19.50;17.25;;;;;20.76;38.17;103588.81;5055945;28;46058;-72
2023/02/10 05:01:03;;;;;;;;;17.25;17.00;;;;;20.77;38.16;103590.50;5056300;28;45393;-72
2023/02/10 05:03:29;;;;;;;;;21.50;17.75;;;;;20.76;38.14;103590.59;5056473;28;45328;-72
2023/02/10 05:05:54;;;;;;;;;18.75;17.25;;;;;20.76;38.01;103587.97;5055749;28;45379;-72
2023/02/10 05:08:22;;;;;;;;;19.50;18.75;;;;;20.76;37.84;103591.47;5055954;28;45366;-71
2023/02/10 05:10:47;;;;;;;;;21.00;18.50;;;;;20.76;37.83;103590.59;5056184;28;45426;-72
2023/02/10 05:13:13;;;;;;;;;20.00;16.75;;;;;20.76;38.01;103588.81;5056113;28;45244;-73
2023/02/10 05:15:39;;;;;;;;;15.50;15.50;;;;;20.77;38.02;103598.44;5056196;28;45523;-72
2023/02/10 05:18:04;;;;;;;;;18.00;17.25;;;;;20.77;38.02;103598.44;5056010;28;46156;-72
2023/02/10 05:20:29;;;;;;;;;18.25;15.50;;;;;20.78;38.24;103597.50;5055624;28;45244;-72
2023/02/10 05:22:55;;;;;;;;;18.25;18.00;;;;;20.77;37.84;103603.72;5056029;28;45328;-72
2023/02/10 05:25:20;;;;;;;;;17.75;16.75;;;;;20.77;38.09;103609.00;5056227;28;45341;-72
2023/02/10 05:27:46;;;;;;;;;18.25;16.00;;;;;20.78;37.99;103599.28;5055802;28;45317;-72
2023/02/10 05:30:12;;;;;;;;;16.50;15.75;;;;;20.78;38.02;103597.50;5055882;28;45327;-72
2023/02/10 05:32:38;;;;;;;;;16.50;16.50;;;;;20.78;37.80;103599.28;5056082;28;45210;-72
2023/02/10 05:35:04;;;;;;;;;18.50;18.00;;;;;20.65;37.96;103586.03;5055402;28;45313;-72
2023/02/10 05:37:29;;;;;;;;;15.25;14.25;;;;;20.77;37.99;103603.72;5055463;28;46237;-72
2023/02/10 05:39:55;;;;;;;;;17.00;16.25;;;;;20.78;38.09;103604.56;5055764;28;45460;-72
2023/02/10 05:42:20;;;;;;;;;14.75;14.25;;;;;20.78;37.91;103599.28;5055890;28;45317;-72
2023/02/10 05:44:45;;;;;;;;;17.25;15.75;;;;;20.78;38.15;103599.28;5055740;28;45487;-72
2023/02/10 05:47:11;;;;;;;;;19.00;17.75;;;;;20.78;37.72;103600.13;5055338;28;46014;-72
2023/02/10 05:49:36;;;;;;;;;20.00;16.00;;;;;20.78;38.02;103605.44;5055346;28;45394;-72
2023/02/10 05:52:01;;;;;;;;;19.50;17.00;;;;;20.77;37.93;103611.66;5055655;28;45337;-72
2023/02/10 05:54:27;;;;;;;;;19.75;18.25;;;;;20.77;37.72;103609.00;5055803;28;45456;-72
2023/02/10 05:56:52;;;;;;;;;18.00;17.50;;;;;20.77;38.01;103608.16;5055437;28;46062;-72
2023/02/10 05:59:17;;;;;;;;;16.50;16.50;;;;;20.77;37.95;103610.81;5055285;28;46693;-72
2023/02/10 06:01:43;;;;;;;;;17.50;13.50;;;;;20.72;38.15;103597.91;5055616;28;45376;-72
2023/02/10 06:04:09;;;;;;;;;16.75;16.25;;;;;20.76;38.10;103604.69;5055060;28;45414;-72
2023/02/10 06:06:34;;;;;;;;;19.25;16.25;;;;;20.69;37.81;103595.44;5020619;28;45969;-72
2023/02/10 06:08:59;;;;;;;;;20.75;19.25;;;;;20.77;37.84;103614.31;5055203;28;45466;-72
2023/02/10 06:11:25;;;;;;;;;15.75;15.00;;;;;20.73;37.82;103603.09;5055334;28;45275;-72
2023/02/10 06:13:50;;;;;;;;;22.50;17.00;;;;;20.77;37.94;103605.50;5055431;28;45504;-72
2023/02/10 06:16:15;;;;;;;;;19.00;16.75;;;;;20.76;37.72;103602.03;5055165;28;46130;-72
2023/02/10 06:18:42;;;;;;;;;17.00;16.75;;;;;20.76;38.28;103607.34;5056381;28;45657;-72
2023/02/10 06:21:08;;;;;;;;;21.50;18.00;;;;;20.71;38.05;103598.88;5058810;28;45443;-72
2023/02/10 06:23:34;;;;;;;;;17.50;16.00;;;;;20.74;37.90;103610.06;5058772;28;45421;-72
2023/02/10 06:26:00;;;;;;;;;19.50;18.00;;;;;20.70;38.19;103611.25;5058429;28;47235;-72
2023/02/10 06:28:26;;;;;;;;;16.75;16.75;;;;;20.76;37.80;103614.44;5058588;28;45393;-72
2023/02/10 06:30:52;;;;;;;;;17.00;16.00;;;;;20.75;38.22;103621.50;5058611;28;45308;-73
2023/02/10 06:33:17;;;;;;;;;18.25;18.25;;;;;20.76;38.15;103625.88;5058158;28;45316;-72
2023/02/10 06:35:43;;;;;;;;;14.50;13.50;;;;;20.77;38.18;103627.53;5058428;28;46237;-74
2023/02/10 06:38:08;;;;;;;;;17.75;17.00;;;;;20.78;38.22;103629.25;5058425;28;45700;-73
2023/02/10 06:40:34;;;;;;;;;16.25;15.00;;;;;20.78;38.09;103621.31;5058488;28;45356;-72
2023/02/10 06:43:00;;;;;;;;;17.75;16.00;;;;;20.77;38.39;103624.88;5058454;28;45353;-72
2023/02/10 06:45:26;;;;;;;;;17.50;17.25;;;;;20.81;38.15;103628.19;5056804;28;47242;-72
2023/02/10 06:47:52;;;;;;;;;20.25;17.00;;;;;20.81;38.45;103631.69;5057696;28;45242;-72
2023/02/10 06:50:17;;;;;;;;;17.50;17.00;;;;;20.79;38.16;103630.91;5040203;28;45412;-72
2023/02/10 06:52:43;;;;;;;;;17.00;15.25;;;;;20.80;38.34;103632.63;5058309;28;45236;-72
2023/02/10 06:55:08;;;;;;;;;19.00;18.00;;;;;20.80;38.32;103640.56;5058202;28;45271;-72
2023/02/10 06:57:36;;;;;;;;;18.00;16.00;;;;;20.81;38.26;103642.28;5057901;28;45207;-73
2023/02/10 07:00:07;;;;;;;;;16.00;14.75;;;;;20.79;38.67;103638.84;5058425;28;45414;-72
2023/02/10 07:02:32;;;;;;;;;18.50;15.50;;;;;20.77;38.38;103637.25;5057802;28;45301;-72
2023/02/10 07:04:58;;;;;;;;;14.75;13.75;;;;;20.81;38.32;103642.28;5057859;28;46106;-72
2023/02/10 07:07:23;;;;;;;;;19.50;18.00;;;;;20.82;38.55;103640.44;5057784;28;45286;-72
2023/02/10 07:09:48;;;;;;;;;19.75;15.75;;;;;20.82;38.44;103649.25;5039442;28;45412;-72
2023/02/10 07:12:13;;;;;;;;;16.50;14.00;;;;;20.82;38.69;103651.88;5057954;28;45359;-72
2023/02/10 07:14:39;;;;;;;;;21.00;15.25;;;;;20.83;38.55;103644.81;5057815;28;46892;-72
2023/02/10 07:17:04;;;;;;;;;19.25;17.25;;;;;20.80;38.99;103645.84;5057649;28;45334;-72
2023/02/10 07:19:30;;;;;;;;;14.75;14.00;;;;;20.84;38.67;103641.22;5057887;28;45403;-72
2023/02/10 07:21:56;;;;;;;;;16.00;15.00;;;;;20.71;38.35;103628.78;5057866;28;45458;-72
2023/02/10 07:24:21;;;;;;;;;15.00;15.00;;;;;20.80;38.84;103637.91;5057663;28;46190;-72
2023/02/10 07:26:47;;;;;;;;;18.25;16.75;;;;;20.79;38.67;103646.78;5057700;28;45263;-72
2023/02/10 07:29:12;;;;;;;;;17.00;16.00;;;;;20.84;38.55;103654.44;5057791;28;45275;-72
2023/02/10 07:31:37;;;;;;;;;15.75;14.00;;;;;20.83;38.42;103652.75;5057430;28;45440;-72
2023/02/10 07:34:03;;;;;;;;;15.25;13.00;;;;;20.84;38.99;103665.84;5057492;28;45342;-72
2023/02/10 07:36:29;;;;;;;;;18.00;15.00;;;;;20.80;38.41;103647.66;5057580;28;45380;-72
2023/02/10 07:38:54;;;;;;;;;20.50;15.00;;;;;20.84;39.05;103655.28;5057738;28;45857;-72
2023/02/10 07:41:20;;;;;;;;;15.25;14.75;;;;;20.75;38.46;103647.97;5057655;28;45274;-72
2023/02/10 07:43:45;;;;;;;;;15.00;14.25;;;;;20.87;38.74;103663.97;5057465;28;46229;-72
2023/02/10 07:46:11;;;;;;;;;18.25;18.00;;;;;20.80;38.62;103655.59;5039102;28;45400;-72
2023/02/10 07:48:36;;;;;;;;;17.25;16.00;;;;;20.88;38.60;103665.66;5057614;28;45338;-72
2023/02/10 07:51:02;;;;;;;;;23.50;17.25;;;;;20.89;38.59;103662.94;5057573;28;45487;-72
2023/02/10 07:53:27;;;;;;;;;15.25;14.25;;;;;20.88;38.82;103661.22;5056977;28;46083;-72
2023/02/10 07:55:53;;;;;;;;;18.50;16.75;;;;;20.88;39.05;103669.16;5057272;28;45345;-72
2023/02/10 07:58:18;;;;;;;;;21.75;17.00;;;;;20.89;38.65;103676.16;5057180;28;45509;-72
2023/02/10 08:00:43;;;;;;;;;15.75;15.75;;;;;20.88;39.08;103666.50;5057043;28;45270;-72
2023/02/10 08:03:13;;;;;;;;;16.25;14.75;;;;;20.89;38.88;103672.66;5057069;28;45987;-72
2023/02/10 08:05:39;;;;;;;;;17.25;13.50;;;;;20.87;38.48;103675.38;5057144;28;45453;-72
2023/02/10 08:08:04;;;;;;;;;21.00;17.50;;;;;20.87;38.98;103677.22;5057106;28;45450;-72
2023/02/10 08:10:30;;;;;;;;;17.25;15.00;;;;;20.84;38.85;103679.09;5057090;28;45416;-72
2023/02/10 08:12:55;;;;;;;;;15.00;15.00;;;;;20.84;38.95;103686.22;5056861;28;46133;-72
2023/02/10 08:15:22;;;;;;;;;17.50;16.25;;;;;20.84;39.36;103692.31;5056817;28;45488;-72
2023/02/10 08:17:48;;;;;;;;;15.25;14.00;;;;;20.84;39.08;103699.44;5057139;28;45404;-72
2023/02/10 08:20:13;;;;;;;;;17.25;16.00;;;;;20.84;38.86;103694.97;5056871;28;45417;-73
2023/02/10 08:22:38;;;;;;;;;14.00;13.00;;;;;20.84;39.21;103694.16;5056759;28;45508;-72
2023/02/10 08:25:04;;;;;;;;;18.50;16.00;;;;;20.84;38.94;103697.63;5056674;28;45360;-72
2023/02/10 08:27:29;;;;;;;;;16.50;16.00;;;;;20.84;39.13;103694.16;5056863;28;45448;-72
2023/02/10 08:29:55;;;;;;;;;16.00;16.00;;;;;20.74;39.02;103678.88;5056506;28;45360;-72
2023/02/10 08:32:21;;;;;;;;;14.25;13.00;;;;;20.80;39.29;103688.19;5056527;28;46237;-72
2023/02/10 08:34:47;;;;;;;;;16.25;15.25;;;;;20.80;39.27;103705.88;5055475;28;45430;-72
2023/02/10 08:37:12;;;;;;;;;16.50;14.25;;;;;20.82;38.85;103696.88;5056502;28;45469;-72
2023/02/10 08:39:38;;;;;;;;;14.50;13.25;;;;;20.81;39.20;103702.28;5056288;28;45340;-72
2023/02/10 08:42:03;;;;;;;;;19.50;17.50;;;;;20.83;39.54;103708.31;5055600;28;45934;-72
2023/02/10 08:44:29;;;;;;;;;16.00;15.00;;;;;20.71;39.21;103684.34;5056144;28;45282;-72
2023/02/10 08:46:54;;;;;;;;;20.25;17.25;;;;;20.81;39.02;103704.94;5056469;28;45564;-72
2023/02/10 08:49:19;;;;;;;;;18.75;16.00;;;;;20.81;39.03;103695.19;5056614;28;45290;-72
2023/02/10 08:51:45;;;;;;;;;16.50;15.50;;;;;20.76;39.37;103691.16;5056298;28;45931;-72
2023/02/10 08:54:10;;;;;;;;;14.75;14.50;;;;;20.77;39.15;103690.19;5056202;28;45385;-72
2023/02/10 08:56:36;;;;;;;;;20.00;15.75;;;;;20.80;39.47;103697.94;5056526;28;45336;-72
2023/02/10 08:59:01;;;;;;;;;15.00;14.50;;;;;20.80;39.33;103697.94;5055683;28;45372;-71
2023/02/10 09:01:26;;;;;;;;;15.00;14.75;;;;;20.79;39.56;103706.84;5056000;28;47264;-72
2023/02/10 09:03:53;;;;;;;;;13.25;13.25;;;;;20.80;39.40;103719.09;5056135;28;45289;-71
2023/02/10 09:06:22;;;;;;;;;14.00;13.50;;;;;20.82;39.43;103714.53;5052749;28;45483;-72
2023/02/10 09:08:50;;;;;;;;;18.00;15.50;;;;;20.84;39.23;103710.03;5046228;28;45691;-72
2023/02/10 09:11:17;;;;;;;;;14.75;14.75;;;;;20.83;38.99;103705.66;5044060;28;46986;-72
2023/02/10 09:13:42;;;;;;;;;27.75;26.00;;;;;20.89;38.31;103718.50;5053823;28;45406;-72
2023/02/10 09:16:08;;;;;;;;;34.50;28.75;;;;;20.82;36.44;103718.03;5042795;28;45330;-72
2023/02/10 09:18:33;;;;;;;;;32.50;29.50;;;;;20.57;36.79;103717.03;5056131;28;45485;-75
2023/02/10 09:21:00;;;;;;;;;27.75;24.25;;;;;20.54;38.05;103685.47;5055872;28;46334;-74
2023/02/10 09:23:25;;;;;;;;;23.00;21.75;;;;;20.60;38.02;103689.53;5049544;28;45511;-76
2023/02/10 09:25:57;;;;;;;;;28.00;24.00;;;;;20.64;38.00;103698.94;5048630;28;45746;-74
2023/02/10 09:28:23;;;;;;;;;21.25;20.25;;;;;20.70;38.19;103706.50;5042266;28;45439;-75
2023/02/10 09:30:49;;;;;;;;;21.00;18.25;;;;;20.69;37.99;103706.56;5055333;28;47467;-74
2023/02/10 09:33:15;;;;;;;;;15.50;15.50;;;;;20.81;38.25;103719.00;5055858;28;45311;-74
2023/02/10 09:35:41;;;;;;;;;17.75;15.75;;;;;20.74;37.91;103697.38;5055556;28;45498;-74
2023/02/10 09:38:08;;;;;;;;;18.50;13.25;;;;;20.90;38.50;103722.81;5055839;28;45412;-74
2023/02/10 09:40:45;;;;;;;;;18.25;17.50;;;;;20.96;38.05;103729.53;5037529;28;46009;-74
2023/02/10 09:43:57;;;;;;;;;25.25;24.00;;;;;20.91;36.87;103715.75;5055264;28;45562;-73
2023/02/10 09:46:40;;;;;;;;;28.00;27.00;;;;;20.91;37.13;103728.97;5055567;28;45526;-73
2023/02/10 09:49:31;;;;;;;;;36.25;32.25;;;;;20.80;35.68;103735.81;5055493;28;45407;-72
2023/02/10 09:52:11;;;;;;;;;40.75;31.00;;;;;20.48;35.82;103731.69;4972557;28;47328;-72
2023/02/10 09:54:39;;;;;;;;;43.50;32.75;;;;;20.26;35.80;103735.72;4976142;28;45511;-71
2023/02/10 09:57:11;;;;;;;;;39.25;33.00;;;;;20.07;36.28;103742.13;4976079;28;45446;-75
2023/02/10 09:59:38;;;;;;;;;31.50;25.50;;;;;19.86;36.39;103739.03;4976767;28;45544;-74
2023/02/10 10:02:18;;;;;;;;;29.25;26.50;;;;;19.69;36.71;103740.91;4976824;28;47262;-73
2023/02/10 10:04:44;;;;;;;;;30.50;26.25;;;;;19.48;36.55;103721.94;4977004;28;45372;-76
2023/02/10 10:07:28;;;;;;;;;24.25;20.75;;;;;19.42;36.51;103730.22;4977369;28;45376;-73
2023/02/10 10:10:15;;;;;;;;;24.25;21.50;;;;;19.28;36.70;103729.28;4976648;28;45477;-73
2023/02/10 10:12:41;;;;;;;;;20.50;18.00;;;;;19.08;36.88;103725.97;4976937;28;45652;-73
2023/02/10 10:15:17;;;;;;;;;23.75;21.00;;;;;18.81;36.93;103710.81;4976731;28;45510;-73
2023/02/10 10:17:48;;;;;;;;;19.75;16.75;;;;;18.86;37.46;103740.41;4976771;28;46433;-75
2023/02/10 10:20:34;;;;;;;;;20.50;18.75;;;;;18.88;37.06;103743.81;4977088;28;45467;-75
2023/02/10 10:23:23;;;;;;;;;19.00;18.25;;;;;18.78;36.88;103738.22;4976793;28;46194;-75
2023/02/10 10:26:00;;;;;;;;;23.50;19.00;;;;;18.68;36.81;103745.78;4973945;28;45635;-73
2023/02/10 10:28:39;;;;;;;;;17.00;11.00;;;;;18.44;36.44;103733.03;4998880;28;45379;-75
2023/02/10 10:31:24;;;;;;;;;17.00;16.75;;;;;18.47;36.75;103753.13;5047052;28;45352;-75
2023/02/10 10:34:07;;;;;;;;;18.75;12.75;;;;;18.49;36.82;103753.88;5040348;28;47261;-82
2023/02/10 10:36:39;;;;;;;;;16.00;16.00;;;;;18.55;37.04;103761.47;5058537;28;45319;-77
2023/02/10 10:39:15;;;;;;;;;20.50;14.25;;;;;18.57;36.17;103769.28;5045803;28;45486;-75
2023/02/10 10:41:43;;;;;;;;;11.75;11.50;;;;;18.46;35.86;103761.94;5058472;28;45414;-75
2023/02/10 10:44:12;;;;;;;;;14.25;11.75;;;;;18.47;35.87;103761.03;5058272;28;46088;-75
2023/02/10 10:46:45;;;;;;;;;17.00;12.50;;;;;18.33;35.94;103752.06;5058041;28;45456;-75
2023/02/10 10:49:11;;;;;;;;;14.50;11.50;;;;;18.22;35.98;103742.13;5058362;28;45469;-75
2023/02/10 10:51:37;;;;;;;;;16.25;14.00;;;;;18.15;36.20;103738.94;5057968;28;45301;-76
2023/02/10 10:54:05;;;;;;;;;12.75;12.00;;;;;18.29;35.88;103754.00;5057936;28;46277;-75
2023/02/10 10:56:44;;;;;;;;;11.50;11.50;;;;;18.25;36.38;103757.75;5057776;28;45252;-75
2023/02/10 10:59:23;;;;;;;;;11.50;11.00;;;;;18.32;36.25;103754.81;5057753;28;45365;-74
2023/02/10 11:01:49;;;;;;;;;9.25;8.75;;;;;18.38;36.79;103731.59;5046093;28;45563;-76
2023/02/10 11:04:15;;;;;;;;;9.50;7.50;;;;;18.60;36.26;103732.19;5057493;28;46151;-75
2023/02/10 11:06:42;;;;;;;;;10.25;9.25;;;;;18.74;36.40;103734.03;5058063;28;45402;-75
2023/02/10 11:09:31;;;;;;;;;9.25;8.00;;;;;18.86;36.33;103727.22;5057917;28;45350;-75
2023/02/10 11:12:05;;;;;;;;;7.00;7.00;;;;;18.99;35.98;103721.22;5058318;28;45474;-77
2023/02/10 11:14:40;;;;;;;;;8.75;8.25;;;;;19.07;35.96;103711.09;5053030;28;47207;-76